Time;durP1;ratioP1;P1;durP2;ratioP2;P2;SDS_P1;SDS_P2;PMS_P1;PMS_P2;Temp;Humidity;BMP_temperature;BMP_pressure;BME280_temperature;BME280_humidity;BME280_pressure;Samples;Min_cycle;Max_cycle;Signal;HPM_P1;HPM_P2
2021/09/24 00:01:20;;;;;;;23.58;3.90;;;;;;;;;;4980943;28;20022;-36
2021/09/24 00:03:47;;;;;;;20.00;4.18;;;;;;;;;;4994845;28;20140;-39
2021/09/24 00:06:14;;;;;;;30.17;4.50;;;;;;;;;;4996379;28;20118;-40
2021/09/24 00:08:41;;;;;;;15.32;4.28;;;;;;;;;;4997960;28;20084;-41
2021/09/24 00:11:08;;;;;;;24.85;4.05;;;;;;;;;;5004691;28;20065;-41
2021/09/24 00:13:35;;;;;;;23.25;4.25;;;;;;;;;;4984436;28;20125;-41
2021/09/24 00:16:02;;;;;;;24.88;4.70;;;;;;;;;;5002450;28;20069;-42
2021/09/24 00:18:29;;;;;;;29.35;3.80;;;;;;;;;;4998525;28;20359;-42
2021/09/24 00:20:57;;;;;;;19.02;3.88;;;;;;;;;;5001759;28;20113;-43
2021/09/24 00:23:24;;;;;;;24.55;4.47;;;;;;;;;;5003927;28;20029;-41
2021/09/24 00:25:51;;;;;;;20.70;3.50;;;;;;;;;;5008688;28;20030;-41
2021/09/24 00:28:18;;;;;;;25.15;3.97;;;;;;;;;;5003621;28;20029;-41
2021/09/24 00:30:45;;;;;;;27.48;3.88;;;;;;;;;;4997279;28;20033;-43
2021/09/24 00:33:12;;;;;;;21.77;4.40;;;;;;;;;;5005182;28;20030;-42
2021/09/24 00:35:39;;;;;;;26.77;4.78;;;;;;;;;;5002753;28;20072;-41
2021/09/24 00:38:06;;;;;;;25.13;4.68;;;;;;;;;;5004545;28;20379;-42
2021/09/24 00:40:34;;;;;;;22.88;4.97;;;;;;;;;;5003398;28;20043;-41
2021/09/24 00:43:02;;;;;;;28.92;4.85;;;;;;;;;;5004124;28;20015;-42
2021/09/24 00:45:29;;;;;;;20.27;4.93;;;;;;;;;;5000365;28;20482;-41
2021/09/24 00:47:56;;;;;;;32.03;6.80;;;;;;;;;;4999270;28;20025;-41
2021/09/24 00:50:23;;;;;;;32.33;8.63;;;;;;;;;;5006085;28;20018;-42
2021/09/24 00:52:53;;;;;;;36.35;10.63;;;;;;;;;;5009766;28;20055;-41
2021/09/24 00:55:21;;;;;;;39.83;11.68;;;;;;;;;;5007841;28;20112;-42
2021/09/24 00:57:48;;;;;;;37.47;11.63;;;;;;;;;;5019831;28;20402;-41
2021/09/24 01:00:16;;;;;;;39.65;11.23;;;;;;;;;;5007817;28;20018;-41
2021/09/24 01:02:43;;;;;;;47.13;13.18;;;;;;;;;;5009754;28;20030;-41
2021/09/24 01:05:11;;;;;;;46.60;13.77;;;;;;;;;;5007123;28;20505;-41
2021/09/24 01:07:39;;;;;;;48.58;15.40;;;;;;;;;;5005199;28;20030;-41
2021/09/24 01:10:06;;;;;;;42.15;13.02;;;;;;;;;;4999898;28;20022;-42
2021/09/24 01:12:34;;;;;;;43.97;14.48;;;;;;;;;;5003460;28;20088;-42
2021/09/24 01:15:02;;;;;;;51.28;14.23;;;;;;;;;;5010149;28;20037;-43
2021/09/24 01:17:29;;;;;;;35.40;12.85;;;;;;;;;;5008493;28;20026;-42
2021/09/24 01:19:56;;;;;;;34.10;12.40;;;;;;;;;;5010666;28;20498;-43
2021/09/24 01:22:23;;;;;;;46.63;13.57;;;;;;;;;;5010151;28;20093;-44
2021/09/24 01:24:50;;;;;;;40.13;13.75;;;;;;;;;;5010199;28;20489;-43
2021/09/24 01:27:17;;;;;;;49.30;14.10;;;;;;;;;;5007528;28;20025;-43
2021/09/24 01:29:49;;;;;;;48.75;13.05;;;;;;;;;;5009007;28;20526;-43
2021/09/24 01:32:16;;;;;;;37.40;11.50;;;;;;;;;;5005403;28;20371;-42
2021/09/24 01:34:43;;;;;;;41.90;13.02;;;;;;;;;;5002803;28;20049;-43
2021/09/24 01:37:10;;;;;;;39.38;11.50;;;;;;;;;;5005652;28;20026;-43
2021/09/24 01:39:37;;;;;;;41.25;11.50;;;;;;;;;;5001944;28;20085;-42
2021/09/24 01:42:05;;;;;;;51.38;12.88;;;;;;;;;;5004930;28;20096;-43
2021/09/24 01:44:32;;;;;;;34.90;10.90;;;;;;;;;;4996933;28;20027;-45
2021/09/24 01:46:59;;;;;;;49.10;11.50;;;;;;;;;;5008016;28;20030;-42
2021/09/24 01:49:26;;;;;;;38.30;10.70;;;;;;;;;;5004135;28;20022;-43
2021/09/24 01:51:53;;;;;;;42.25;10.57;;;;;;;;;;5006589;28;20022;-43
2021/09/24 01:54:21;;;;;;;45.45;11.02;;;;;;;;;;5007102;28;20065;-43
2021/09/24 01:56:49;;;;;;;40.30;11.02;;;;;;;;;;5008121;28;20022;-42
2021/09/24 01:59:16;;;;;;;44.05;10.30;;;;;;;;;;5009702;28;20026;-43
2021/09/24 02:01:43;;;;;;;40.05;10.15;;;;;;;;;;5009294;28;20080;-42
2021/09/24 02:04:10;;;;;;;31.55;9.38;;;;;;;;;;5000780;28;20034;-44
2021/09/24 02:06:37;;;;;;;43.20;10.20;;;;;;;;;;5004201;28;20024;-43
2021/09/24 02:09:05;;;;;;;40.78;9.77;;;;;;;;;;4995176;28;20065;-44
2021/09/24 02:11:32;;;;;;;45.10;10.55;;;;;;;;;;4993030;28;20053;-43
2021/09/24 02:13:59;;;;;;;42.03;10.00;;;;;;;;;;4991431;28;20089;-44
2021/09/24 02:16:26;;;;;;;45.08;10.38;;;;;;;;;;5017936;28;20563;-45
2021/09/24 02:18:53;;;;;;;49.28;9.18;;;;;;;;;;4994593;28;20029;-44
2021/09/24 02:21:20;;;;;;;48.03;10.23;;;;;;;;;;4999407;28;20019;-44
2021/09/24 02:23:47;;;;;;;37.13;9.23;;;;;;;;;;5006002;28;20022;-46
2021/09/24 02:26:14;;;;;;;41.08;9.75;;;;;;;;;;5006428;28;20014;-45
2021/09/24 02:28:43;;;;;;;44.58;10.02;;;;;;;;;;5010066;28;20022;-46
2021/09/24 02:31:10;;;;;;;34.28;9.57;;;;;;;;;;5011210;28;20105;-45
2021/09/24 02:33:38;;;;;;;44.75;10.63;;;;;;;;;;5012041;28;20477;-47
2021/09/24 02:36:06;;;;;;;47.78;9.13;;;;;;;;;;5012034;28;20080;-41
2021/09/24 02:38:33;;;;;;;42.20;10.45;;;;;;;;;;5011818;28;20045;-44
2021/09/24 02:41:01;;;;;;;36.65;8.68;;;;;;;;;;5009520;28;20084;-44
2021/09/24 02:43:28;;;;;;;49.42;9.90;;;;;;;;;;5012334;28;20018;-45
2021/09/24 02:45:55;;;;;;;40.97;8.88;;;;;;;;;;5012261;28;20018;-44
2021/09/24 02:48:24;;;;;;;28.30;8.57;;;;;;;;;;5011415;28;20116;-43
2021/09/24 02:50:51;;;;;;;32.08;8.60;;;;;;;;;;5009447;28;20097;-46
2021/09/24 02:53:18;;;;;;;30.65;9.02;;;;;;;;;;5011917;28;20026;-45
2021/09/24 02:55:45;;;;;;;39.50;9.55;;;;;;;;;;5011927;28;20088;-44
2021/09/24 02:58:12;;;;;;;42.70;9.13;;;;;;;;;;5010812;28;20447;-43
2021/09/24 03:00:39;;;;;;;33.05;8.48;;;;;;;;;;5011764;28;20367;-44
2021/09/24 03:03:06;;;;;;;31.10;7.93;;;;;;;;;;5010391;28;20018;-44
2021/09/24 03:05:35;;;;;;;37.90;9.57;;;;;;;;;;5010732;28;20056;-45
2021/09/24 03:08:02;;;;;;;32.20;8.65;;;;;;;;;;5005607;28;20702;-43
2021/09/24 03:10:29;;;;;;;26.58;7.60;;;;;;;;;;5011307;28;20018;-44
2021/09/24 03:12:57;;;;;;;32.78;8.73;;;;;;;;;;5011646;28;20030;-44
2021/09/24 03:15:24;;;;;;;26.70;7.72;;;;;;;;;;5011372;28;20460;-44
2021/09/24 03:17:51;;;;;;;30.30;7.68;;;;;;;;;;5011731;28;20032;-45
2021/09/24 03:20:18;;;;;;;28.77;7.78;;;;;;;;;;5010338;28;20111;-44
2021/09/24 03:22:45;;;;;;;31.08;8.02;;;;;;;;;;5011785;28;20025;-44
2021/09/24 03:25:12;;;;;;;29.92;7.75;;;;;;;;;;5011868;28;20022;-44
2021/09/24 03:27:39;;;;;;;24.17;7.45;;;;;;;;;;5011566;28;20094;-45
2021/09/24 03:30:07;;;;;;;40.15;8.23;;;;;;;;;;5011720;28;20030;-45
2021/09/24 03:32:34;;;;;;;27.67;7.47;;;;;;;;;;5011014;28;20026;-47
2021/09/24 03:35:02;;;;;;;28.85;6.97;;;;;;;;;;5011633;28;20116;-45
2021/09/24 03:37:29;;;;;;;20.75;7.63;;;;;;;;;;5011044;28;20018;-46
2021/09/24 03:39:56;;;;;;;37.17;8.13;;;;;;;;;;5011821;28;20057;-45
2021/09/24 03:42:23;;;;;;;29.88;7.13;;;;;;;;;;5010879;28;20014;-44
2021/09/24 03:44:51;;;;;;;27.55;7.40;;;;;;;;;;5011844;28;20105;-44
2021/09/24 03:47:18;;;;;;;26.50;6.75;;;;;;;;;;5011270;28;20030;-45
2021/09/24 03:49:45;;;;;;;32.35;7.18;;;;;;;;;;5011395;28;20096;-44
2021/09/24 03:52:12;;;;;;;26.17;6.35;;;;;;;;;;5011148;28;20036;-44
2021/09/24 03:54:39;;;;;;;25.15;6.93;;;;;;;;;;5011819;28;20069;-44
2021/09/24 03:57:06;;;;;;;23.80;6.80;;;;;;;;;;5011664;28;20426;-46
2021/09/24 03:59:33;;;;;;;22.67;6.38;;;;;;;;;;5013593;28;20022;-44
2021/09/24 04:02:00;;;;;;;26.65;6.82;;;;;;;;;;5015128;28;20028;-44
2021/09/24 04:04:27;;;;;;;27.88;6.93;;;;;;;;;;5014920;28;20061;-44
2021/09/24 04:06:54;;;;;;;19.05;5.82;;;;;;;;;;5015602;28;20026;-44
2021/09/24 04:09:21;;;;;;;19.67;6.47;;;;;;;;;;5014848;28;20050;-45
2021/09/24 04:11:48;;;;;;;21.70;6.05;;;;;;;;;;5015283;28;20033;-45
2021/09/24 04:14:15;;;;;;;22.67;6.28;;;;;;;;;;5014595;28;20041;-45
2021/09/24 04:16:43;;;;;;;17.95;5.75;;;;;;;;;;5015228;28;20018;-47
2021/09/24 04:19:10;;;;;;;20.65;5.47;;;;;;;;;;5014916;28;20076;-44
2021/09/24 04:21:37;;;;;;;16.75;6.03;;;;;;;;;;5015216;28;20016;-45
2021/09/24 04:24:04;;;;;;;21.67;6.45;;;;;;;;;;5014234;28;20021;-43
2021/09/24 04:26:31;;;;;;;18.27;6.00;;;;;;;;;;5015371;28;20021;-44
2021/09/24 04:29:00;;;;;;;21.30;6.22;;;;;;;;;;5014602;28;20022;-45
2021/09/24 04:31:29;;;;;;;20.90;5.78;;;;;;;;;;5014807;28;20076;-46
2021/09/24 04:33:56;;;;;;;15.38;5.90;;;;;;;;;;5014916;28;20029;-43
2021/09/24 04:36:23;;;;;;;14.68;5.45;;;;;;;;;;5014420;28;20090;-46
2021/09/24 04:38:50;;;;;;;18.60;4.93;;;;;;;;;;5014654;28;20042;-46
2021/09/24 04:41:17;;;;;;;14.60;5.15;;;;;;;;;;5014432;28;20042;-45
2021/09/24 04:43:44;;;;;;;15.40;5.93;;;;;;;;;;5014384;28;20018;-46
2021/09/24 04:46:11;;;;;;;16.60;4.82;;;;;;;;;;5013918;28;20085;-45
2021/09/24 04:48:38;;;;;;;16.65;5.28;;;;;;;;;;5014773;28;20049;-44
2021/09/24 04:51:05;;;;;;;14.90;4.70;;;;;;;;;;5014186;28;20037;-44
2021/09/24 04:53:32;;;;;;;14.05;4.85;;;;;;;;;;5013153;28;20229;-42
2021/09/24 04:55:59;;;;;;;22.48;5.10;;;;;;;;;;5014000;28;20030;-44
2021/09/24 04:58:26;;;;;;;16.73;5.38;;;;;;;;;;5013392;28;20022;-44
2021/09/24 05:00:53;;;;;;;17.33;5.20;;;;;;;;;;5013687;28;20053;-45
2021/09/24 05:03:20;;;;;;;16.63;4.80;;;;;;;;;;5014372;28;20107;-46
2021/09/24 05:05:47;;;;;;;13.50;4.95;;;;;;;;;;5013753;28;20026;-46
2021/09/24 05:08:14;;;;;;;13.02;4.57;;;;;;;;;;5014125;28;20072;-43
2021/09/24 05:10:41;;;;;;;13.40;4.53;;;;;;;;;;5013619;28;20520;-44
2021/09/24 05:13:08;;;;;;;13.00;4.88;;;;;;;;;;5013572;28;20026;-45
2021/09/24 05:15:35;;;;;;;12.57;4.82;;;;;;;;;;5013874;28;20030;-46
2021/09/24 05:18:02;;;;;;;15.80;4.53;;;;;;;;;;5013616;28;20018;-44
2021/09/24 05:20:29;;;;;;;12.73;5.13;;;;;;;;;;5013901;28;20026;-44
2021/09/24 05:22:57;;;;;;;14.80;4.55;;;;;;;;;;5013707;28;20028;-44
2021/09/24 05:25:24;;;;;;;11.60;4.35;;;;;;;;;;5014058;28;20021;-44
2021/09/24 05:27:52;;;;;;;11.65;4.72;;;;;;;;;;5013704;28;20022;-44
2021/09/24 05:30:19;;;;;;;13.45;4.40;;;;;;;;;;5013983;28;20029;-44
2021/09/24 05:32:46;;;;;;;10.52;4.13;;;;;;;;;;5008414;28;20015;-44
2021/09/24 05:35:15;;;;;;;12.00;4.00;;;;;;;;;;4992739;28;20514;-44
2021/09/24 05:37:42;;;;;;;8.38;3.85;;;;;;;;;;4993510;28;20031;-43
2021/09/24 05:40:09;;;;;;;11.63;4.00;;;;;;;;;;4994517;28;20026;-44
2021/09/24 05:42:36;;;;;;;9.95;4.35;;;;;;;;;;4993124;28;20019;-46
2021/09/24 05:45:04;;;;;;;11.43;3.83;;;;;;;;;;4992114;28;20030;-44
2021/09/24 05:47:31;;;;;;;12.27;3.95;;;;;;;;;;4994357;28;20486;-44
2021/09/24 05:49:58;;;;;;;8.20;3.80;;;;;;;;;;4993565;28;20165;-44
2021/09/24 05:52:25;;;;;;;10.70;3.20;;;;;;;;;;4994134;28;20057;-46
2021/09/24 05:54:52;;;;;;;11.00;3.92;;;;;;;;;;4993275;28;20041;-46
2021/09/24 05:57:19;;;;;;;11.85;3.95;;;;;;;;;;4994220;28;20036;-44
2021/09/24 05:59:46;;;;;;;10.05;4.13;;;;;;;;;;4993000;28;20030;-44
2021/09/24 06:02:16;;;;;;;15.93;4.03;;;;;;;;;;5006619;28;20073;-44
2021/09/24 06:04:43;;;;;;;10.63;3.88;;;;;;;;;;5012244;28;20148;-44
2021/09/24 06:07:10;;;;;;;8.73;3.70;;;;;;;;;;5013249;28;20017;-44
2021/09/24 06:09:37;;;;;;;11.93;3.67;;;;;;;;;;5012904;28;20010;-43
2021/09/24 06:12:04;;;;;;;8.82;3.17;;;;;;;;;;5012973;28;20022;-44
2021/09/24 06:14:31;;;;;;;12.00;3.72;;;;;;;;;;5013033;28;20064;-44
2021/09/24 06:16:58;;;;;;;9.45;3.47;;;;;;;;;;5012384;28;20022;-44
2021/09/24 06:19:25;;;;;;;11.60;3.30;;;;;;;;;;5013246;28;20041;-47
2021/09/24 06:21:52;;;;;;;6.18;2.75;;;;;;;;;;5011557;28;20525;-45
2021/09/24 06:24:19;;;;;;;10.02;3.15;;;;;;;;;;5011226;28;20088;-45
2021/09/24 06:26:46;;;;;;;6.97;3.35;;;;;;;;;;5012304;28;20030;-47
2021/09/24 06:29:13;;;;;;;7.10;3.15;;;;;;;;;;5012936;28;20030;-47
2021/09/24 06:31:40;;;;;;;7.72;2.88;;;;;;;;;;5012513;28;20041;-44
2021/09/24 06:34:06;;;;;;;8.80;3.42;;;;;;;;;;5012621;28;20482;-44
2021/09/24 06:36:34;;;;;;;10.50;3.05;;;;;;;;;;5012031;28;20033;-44
2021/09/24 06:39:03;;;;;;;6.80;3.10;;;;;;;;;;5012551;28;20050;-44
2021/09/24 06:41:30;;;;;;;7.00;2.95;;;;;;;;;;5012135;28;20033;-44
2021/09/24 06:43:58;;;;;;;10.32;3.88;;;;;;;;;;5012300;28;20076;-45
2021/09/24 06:46:25;;;;;;;7.35;2.95;;;;;;;;;;5011814;28;20033;-44
2021/09/24 06:48:52;;;;;;;8.15;2.80;;;;;;;;;;5012344;28;20022;-44
2021/09/24 06:51:19;;;;;;;6.13;2.53;;;;;;;;;;5012398;28;20028;-44
2021/09/24 06:53:46;;;;;;;6.43;2.65;;;;;;;;;;5011665;28;20038;-44
2021/09/24 06:56:13;;;;;;;9.55;3.08;;;;;;;;;;5012099;28;20018;-43
2021/09/24 06:58:40;;;;;;;7.28;2.78;;;;;;;;;;5011850;28;20145;-44
2021/09/24 07:01:07;;;;;;;7.25;3.10;;;;;;;;;;5012196;28;20425;-44
2021/09/24 07:03:34;;;;;;;7.40;2.80;;;;;;;;;;5012041;28;20093;-45
2021/09/24 07:06:01;;;;;;;6.22;2.83;;;;;;;;;;5010585;28;20030;-44
2021/09/24 07:08:28;;;;;;;7.90;3.03;;;;;;;;;;5011632;28;20545;-46
2021/09/24 07:10:55;;;;;;;8.80;2.85;;;;;;;;;;5010807;28;20062;-45
2021/09/24 07:13:22;;;;;;;6.70;2.70;;;;;;;;;;5011721;28;20033;-44
2021/09/24 07:15:49;;;;;;;7.53;2.90;;;;;;;;;;5011840;28;20084;-44
2021/09/24 07:18:16;;;;;;;8.82;3.15;;;;;;;;;;5011786;28;20025;-45
2021/09/24 07:20:43;;;;;;;6.93;2.60;;;;;;;;;;5012065;28;20085;-45
2021/09/24 07:23:10;;;;;;;8.32;2.70;;;;;;;;;;5011855;28;20028;-43
2021/09/24 07:25:37;;;;;;;6.53;2.80;;;;;;;;;;5011458;28;20022;-43
2021/09/24 07:28:04;;;;;;;8.75;2.60;;;;;;;;;;5011754;28;20030;-44
2021/09/24 07:30:31;;;;;;;7.07;2.70;;;;;;;;;;5011570;28;20025;-44
2021/09/24 07:32:58;;;;;;;8.57;2.53;;;;;;;;;;5010431;28;20025;-44
2021/09/24 07:35:25;;;;;;;7.95;2.50;;;;;;;;;;5011301;28;20034;-46
2021/09/24 07:37:52;;;;;;;6.32;2.53;;;;;;;;;;5011187;28;20038;-44
2021/09/24 07:40:19;;;;;;;13.77;2.85;;;;;;;;;;5011237;28;20041;-43
2021/09/24 07:42:46;;;;;;;5.22;2.33;;;;;;;;;;5011906;28;20029;-44
2021/09/24 07:45:13;;;;;;;6.60;2.80;;;;;;;;;;5011160;28;20026;-44
2021/09/24 07:47:40;;;;;;;7.95;2.75;;;;;;;;;;5011623;28;20029;-44
2021/09/24 07:50:07;;;;;;;6.80;2.70;;;;;;;;;;5011385;28;20026;-46
2021/09/24 07:52:34;;;;;;;7.05;2.50;;;;;;;;;;5011755;28;20040;-44
2021/09/24 07:55:02;;;;;;;6.97;2.45;;;;;;;;;;5011118;28;20059;-45
2021/09/24 07:57:29;;;;;;;6.28;2.20;;;;;;;;;;5011678;28;20497;-44
2021/09/24 07:59:56;;;;;;;6.45;2.45;;;;;;;;;;5011436;28;20104;-44
2021/09/24 08:02:23;;;;;;;5.22;2.45;;;;;;;;;;5011150;28;20093;-44
2021/09/24 08:04:50;;;;;;;6.03;2.50;;;;;;;;;;5011403;28;20018;-43
2021/09/24 08:07:17;;;;;;;4.38;2.38;;;;;;;;;;5010906;28;20022;-44
2021/09/24 08:09:44;;;;;;;5.03;2.08;;;;;;;;;;5009809;28;20030;-44
2021/09/24 08:12:11;;;;;;;6.38;2.30;;;;;;;;;;5011133;28;20101;-43
2021/09/24 08:14:38;;;;;;;5.18;2.40;;;;;;;;;;5011242;28;20048;-44
2021/09/24 08:17:05;;;;;;;7.25;2.38;;;;;;;;;;5011017;28;20018;-44
2021/09/24 08:19:32;;;;;;;6.50;1.95;;;;;;;;;;5011516;28;20026;-44
2021/09/24 08:21:59;;;;;;;5.60;2.42;;;;;;;;;;5010760;28;20026;-44
2021/09/24 08:24:26;;;;;;;4.63;1.95;;;;;;;;;;5011309;28;20054;-44
2021/09/24 08:26:53;;;;;;;5.00;2.38;;;;;;;;;;5010868;28;20022;-44
2021/09/24 08:29:20;;;;;;;5.55;2.13;;;;;;;;;;5011362;28;20552;-45
2021/09/24 08:31:47;;;;;;;7.65;2.17;;;;;;;;;;5010790;28;20022;-43
2021/09/24 08:34:14;;;;;;;3.35;2.25;;;;;;;;;;5011473;28;20037;-44
2021/09/24 08:36:41;;;;;;;4.75;2.30;;;;;;;;;;5010987;28;20030;-47
2021/09/24 08:39:09;;;;;;;6.65;2.10;;;;;;;;;;5010471;28;20124;-44
2021/09/24 08:41:36;;;;;;;4.50;1.90;;;;;;;;;;5011327;28;20028;-47
2021/09/24 08:44:04;;;;;;;5.05;1.80;;;;;;;;;;5010550;28;20109;-45
2021/09/24 08:46:34;;;;;;;4.47;1.98;;;;;;;;;;5013206;28;20038;-46
2021/09/24 08:49:03;;;;;;;5.22;2.35;;;;;;;;;;5014715;28;20470;-44
2021/09/24 08:51:30;;;;;;;7.50;2.25;;;;;;;;;;5014783;28;20218;-45
2021/09/24 08:53:57;;;;;;;5.63;2.00;;;;;;;;;;5013875;28;20030;-44
2021/09/24 08:56:24;;;;;;;4.95;2.00;;;;;;;;;;5014792;28;20025;-44
2021/09/24 08:58:51;;;;;;;3.38;1.98;;;;;;;;;;5013974;28;20022;-45
2021/09/24 09:01:18;;;;;;;4.07;1.65;;;;;;;;;;5014429;28;20029;-44
2021/09/24 09:03:46;;;;;;;6.80;1.90;;;;;;;;;;5013988;28;20026;-44
2021/09/24 09:06:17;;;;;;;5.10;1.90;;;;;;;;;;5014462;28;20381;-44
2021/09/24 09:08:45;;;;;;;4.68;1.85;;;;;;;;;;5013549;28;20041;-44
2021/09/24 09:11:19;;;;;;;4.85;1.60;;;;;;;;;;5014287;28;20021;-44
2021/09/24 09:13:59;;;;;;;5.50;2.03;;;;;;;;;;5012532;28;20429;-43
2021/09/24 09:16:35;;;;;;;6.47;2.08;;;;;;;;;;5014190;28;20148;-44
2021/09/24 09:19:10;;;;;;;5.82;1.73;;;;;;;;;;5013291;28;20033;-43
2021/09/24 09:21:38;;;;;;;6.40;1.95;;;;;;;;;;5014004;28;20109;-45
2021/09/24 09:24:19;;;;;;;5.85;2.03;;;;;;;;;;5013845;28;20433;-44
2021/09/24 09:26:46;;;;;;;4.13;1.75;;;;;;;;;;5014080;28;20109;-44
2021/09/24 09:29:14;;;;;;;3.92;1.80;;;;;;;;;;5013969;28;20602;-43
2021/09/24 09:31:41;;;;;;;4.75;1.67;;;;;;;;;;5013435;28;20033;-44
2021/09/24 09:34:09;;;;;;;3.85;1.63;;;;;;;;;;5013742;28;20075;-43
2021/09/24 09:36:38;;;;;;;5.10;1.80;;;;;;;;;;5013471;28;20033;-43
2021/09/24 09:39:12;;;;;;;5.15;1.90;;;;;;;;;;5012809;28;20044;-44
2021/09/24 09:41:52;;;;;;;6.60;1.92;;;;;;;;;;5013060;28;20030;-45
2021/09/24 09:44:29;;;;;;;7.13;2.10;;;;;;;;;;5012737;28;20067;-44
2021/09/24 09:46:56;;;;;;;4.70;2.10;;;;;;;;;;4999416;28;20026;-45
2021/09/24 09:49:26;;;;;;;3.90;1.83;;;;;;;;;;5010242;28;20018;-43
2021/09/24 09:52:07;;;;;;;4.35;1.92;;;;;;;;;;5011910;28;20018;-44
2021/09/24 09:54:34;;;;;;;4.97;2.08;;;;;;;;;;5012757;28;20116;-46
2021/09/24 09:57:12;;;;;;;3.45;1.70;;;;;;;;;;5011782;28;20018;-44
2021/09/24 09:59:39;;;;;;;6.22;1.75;;;;;;;;;;5012836;28;20045;-44
2021/09/24 10:02:15;;;;;;;5.13;2.20;;;;;;;;;;5010870;28;20026;-46
2021/09/24 10:04:51;;;;;;;5.35;1.38;;;;;;;;;;5012121;28;20113;-43
2021/09/24 10:07:28;;;;;;;4.57;1.52;;;;;;;;;;5012547;28;20029;-44
2021/09/24 10:10:04;;;;;;;4.57;1.70;;;;;;;;;;5012599;28;20539;-45
2021/09/24 10:12:31;;;;;;;8.32;1.52;;;;;;;;;;5012855;28;20385;-46
2021/09/24 10:14:58;;;;;;;4.45;1.50;;;;;;;;;;5013016;28;20030;-44
2021/09/24 10:17:25;;;;;;;2.85;1.33;;;;;;;;;;5013122;28;20030;-44
2021/09/24 10:19:54;;;;;;;4.55;1.63;;;;;;;;;;5012163;28;20030;-44
2021/09/24 10:22:24;;;;;;;3.05;1.52;;;;;;;;;;5012847;28;20037;-44
2021/09/24 10:24:51;;;;;;;6.00;1.52;;;;;;;;;;5012296;28;20029;-44
2021/09/24 10:27:30;;;;;;;4.63;1.45;;;;;;;;;;5013224;28;20149;-45
2021/09/24 10:30:06;;;;;;;4.30;1.70;;;;;;;;;;5012164;28;20026;-45
2021/09/24 10:32:33;;;;;;;4.53;1.50;;;;;;;;;;5012617;28;20063;-43
2021/09/24 10:35:00;;;;;;;4.88;1.40;;;;;;;;;;5012044;28;20030;-44
2021/09/24 10:37:28;;;;;;;4.05;1.70;;;;;;;;;;5012510;28;20022;-44
2021/09/24 10:40:00;;;;;;;9.02;2.03;;;;;;;;;;5011456;28;20037;-44
2021/09/24 13:43:30;;;;;;;25.02;2.92;;;;;;;;;;5060259;27;2511631;-38
2021/09/24 13:45:58;;;;;;;23.15;3.42;;;;;;;;;;5129310;28;20049;-39
2021/09/24 13:48:25;;;;;;;22.17;2.75;;;;;;;;;;5129122;28;20039;-37
2021/09/24 13:50:52;;;;;;;26.55;2.75;;;;;;;;;;5129438;28;20077;-41
2021/09/24 13:53:20;;;;;;;25.13;2.67;;;;;;;;;;5130264;28;20016;-39
2021/09/24 13:55:47;;;;;;;35.65;3.80;;;;;;;;;;5118755;28;20391;-37
2021/09/24 13:58:14;;;;;;;23.80;3.10;;;;;;;;;;5126576;28;20023;-36
2021/09/24 14:00:41;;;;;;;36.25;3.83;;;;;;;;;;5127566;28;20027;-36
2021/09/24 14:03:08;;;;;;;28.60;2.83;;;;;;;;;;5128246;28;20067;-38
2021/09/24 14:05:35;;;;;;;20.13;3.08;;;;;;;;;;5129273;28;20147;-39
2021/09/24 14:08:02;;;;;;;41.55;3.42;;;;;;;;;;5129119;28;20028;-37
2021/09/24 14:10:29;;;;;;;20.38;3.10;;;;;;;;;;5129149;28;20379;-37
2021/09/24 14:12:57;;;;;;;31.63;3.33;;;;;;;;;;5128350;28;20533;-37
2021/09/24 14:15:24;;;;;;;28.17;3.13;;;;;;;;;;5128660;28;20383;-37
2021/09/24 14:17:51;;;;;;;35.65;3.90;;;;;;;;;;5128986;28;20494;-37
2021/09/24 14:20:19;;;;;;;26.77;3.55;;;;;;;;;;5129058;28;20069;-37
2021/09/24 14:22:47;;;;;;;29.65;4.05;;;;;;;;;;5128636;28;20035;-37
2021/09/24 14:25:15;;;;;;;46.85;4.80;;;;;;;;;;5128861;28;20023;-37
2021/09/24 14:27:44;;;;;;;37.33;4.68;;;;;;;;;;5129066;28;20019;-36
2021/09/24 14:30:12;;;;;;;36.60;4.93;;;;;;;;;;5128611;28;20119;-37
2021/09/24 14:32:39;;;;;;;35.47;3.83;;;;;;;;;;5113150;28;20015;-41
2021/09/24 14:35:06;;;;;;;35.97;4.53;;;;;;;;;;5108091;28;20482;-39
2021/09/24 14:37:33;;;;;;;37.65;4.75;;;;;;;;;;5107486;28;20457;-39
2021/09/24 14:40:00;;;;;;;35.88;4.32;;;;;;;;;;5107571;28;20031;-38
2021/09/24 14:42:27;;;;;;;42.75;4.43;;;;;;;;;;5104485;28;20038;-40
2021/09/24 14:44:55;;;;;;;38.88;4.68;;;;;;;;;;5093117;28;20020;-40
2021/09/24 14:47:22;;;;;;;42.50;4.65;;;;;;;;;;5093093;28;20043;-39
2021/09/24 14:49:49;;;;;;;34.05;4.18;;;;;;;;;;5093672;28;20024;-37
2021/09/24 14:52:16;;;;;;;61.15;4.57;;;;;;;;;;5093751;28;20055;-39
2021/09/24 14:54:43;;;;;;;44.67;4.10;;;;;;;;;;5094268;28;20048;-38
2021/09/24 14:57:10;;;;;;;53.60;4.72;;;;;;;;;;5094494;28;20027;-48
2021/09/24 14:59:37;;;;;;;73.88;5.57;;;;;;;;;;5094056;28;20021;-41
2021/09/24 15:02:05;;;;;;;60.15;5.22;;;;;;;;;;5093974;28;20036;-42
2021/09/24 15:04:32;;;;;;;39.72;3.83;;;;;;;;;;5075344;28;20049;-38
2021/09/24 15:06:59;;;;;;;42.35;5.10;;;;;;;;;;5092945;28;20032;-41
2021/09/24 15:09:26;;;;;;;48.20;4.88;;;;;;;;;;5092678;28;20105;-38
2021/09/24 15:11:53;;;;;;;46.95;5.50;;;;;;;;;;5092837;28;20036;-41
2021/09/24 15:14:20;;;;;;;46.15;4.63;;;;;;;;;;5093326;28;20383;-43
2021/09/24 15:16:47;;;;;;;49.75;5.03;;;;;;;;;;5093892;28;20024;-38
2021/09/24 15:19:14;;;;;;;48.42;4.85;;;;;;;;;;5092987;28;20023;-43
2021/09/24 15:21:41;;;;;;;47.50;5.38;;;;;;;;;;5093719;28;20043;-45
2021/09/24 15:24:08;;;;;;;51.00;4.95;;;;;;;;;;5093966;28;20543;-40
2021/09/24 15:26:35;;;;;;;44.47;4.43;;;;;;;;;;5093937;28;20096;-42
2021/09/24 15:29:02;;;;;;;51.60;5.50;;;;;;;;;;5092936;28;20035;-43
2021/09/24 15:31:29;;;;;;;48.10;5.20;;;;;;;;;;5075472;28;20040;-37
2021/09/24 15:33:57;;;;;;;47.55;4.88;;;;;;;;;;5092939;28;20023;-48
2021/09/24 15:36:23;;;;;;;38.33;4.97;;;;;;;;;;5092589;28;20058;-45
2021/09/24 15:38:51;;;;;;;43.20;5.50;;;;;;;;;;5093140;28;20467;-51
2021/09/24 15:41:18;;;;;;;39.47;4.97;;;;;;;;;;5092277;28;20111;-43
2021/09/24 15:43:45;;;;;;;39.67;4.70;;;;;;;;;;5091903;28;20063;-41
2021/09/24 15:46:12;;;;;;;40.80;5.45;;;;;;;;;;5090436;28;20657;-41
2021/09/24 15:48:39;;;;;;;39.72;7.57;;;;;;;;;;5092413;28;20032;-38
2021/09/24 15:51:06;;;;;;;51.17;7.25;;;;;;;;;;5093690;28;20103;-38
2021/09/24 15:53:33;;;;;;;60.40;7.68;;;;;;;;;;5092612;28;20012;-38
2021/09/24 15:56:00;;;;;;;48.47;6.75;;;;;;;;;;5092787;28;20046;-39
2021/09/24 15:58:28;;;;;;;46.95;7.78;;;;;;;;;;5092867;28;20543;-39
2021/09/24 16:00:55;;;;;;;46.17;8.82;;;;;;;;;;5092832;28;20033;-40
2021/09/24 16:03:22;;;;;;;52.35;8.90;;;;;;;;;;5093055;28;20036;-38
2021/09/24 16:05:49;;;;;;;46.90;7.80;;;;;;;;;;5092626;28;20024;-39
2021/09/24 16:08:16;;;;;;;56.03;8.48;;;;;;;;;;5093024;28;20099;-38
2021/09/24 16:10:43;;;;;;;54.67;8.40;;;;;;;;;;5093430;28;20032;-38
2021/09/24 16:13:10;;;;;;;65.65;9.60;;;;;;;;;;5092431;28;20028;-38
2021/09/24 16:15:37;;;;;;;51.03;8.82;;;;;;;;;;5092272;28;20371;-40
2021/09/24 16:18:04;;;;;;;62.30;8.77;;;;;;;;;;5074688;28;20486;-43
2021/09/24 16:20:31;;;;;;;40.58;6.82;;;;;;;;;;5092961;28;20028;-39
2021/09/24 16:22:58;;;;;;;52.60;6.97;;;;;;;;;;5092402;28;20036;-43
2021/09/24 16:25:25;;;;;;;51.22;7.60;;;;;;;;;;5092676;28;20440;-45
2021/09/24 16:27:52;;;;;;;45.28;7.78;;;;;;;;;;5074580;28;20107;-44
2021/09/24 16:30:19;;;;;;;40.90;7.63;;;;;;;;;;5084880;28;20029;-41
2021/09/24 16:32:47;;;;;;;58.45;7.20;;;;;;;;;;5089122;28;20020;-42
2021/09/24 16:35:15;;;;;;;47.53;7.53;;;;;;;;;;5087412;28;20028;-42
2021/09/24 16:37:43;;;;;;;38.38;6.72;;;;;;;;;;5090199;28;20377;-50
2021/09/24 16:40:12;;;;;;;41.33;6.82;;;;;;;;;;5091961;28;20115;-42
2021/09/24 16:42:40;;;;;;;50.28;7.35;;;;;;;;;;5091059;28;20946;-48
2021/09/24 16:45:08;;;;;;;41.60;6.63;;;;;;;;;;5089512;28;20028;-43
2021/09/24 16:47:35;;;;;;;53.83;7.45;;;;;;;;;;5090864;28;20024;-43
2021/09/24 16:50:03;;;;;;;40.50;5.95;;;;;;;;;;5090380;28;20073;-42
2021/09/24 16:52:31;;;;;;;61.25;6.47;;;;;;;;;;5090836;28;20020;-44
2021/09/24 16:54:59;;;;;;;44.03;7.47;;;;;;;;;;5091113;28;20238;-43
2021/09/24 16:57:26;;;;;;;56.90;7.32;;;;;;;;;;5089495;28;20048;-42
2021/09/24 16:59:53;;;;;;;51.55;8.43;;;;;;;;;;5071489;28;20024;-44
2021/09/24 17:02:21;;;;;;;44.53;7.30;;;;;;;;;;5091133;28;20379;-46
2021/09/24 17:04:48;;;;;;;47.15;8.18;;;;;;;;;;5089143;28;20016;-50
2021/09/24 17:07:15;;;;;;;47.60;6.35;;;;;;;;;;5092339;28;20475;-56
2021/09/24 17:09:42;;;;;;;37.08;6.30;;;;;;;;;;5091131;28;20027;-52
2021/09/24 17:12:09;;;;;;;48.67;7.10;;;;;;;;;;5090319;28;20475;-58
2021/09/24 17:14:36;;;;;;;45.88;6.68;;;;;;;;;;5091143;28;20623;-49
2021/09/24 17:17:03;;;;;;;51.92;6.65;;;;;;;;;;5091369;28;20028;-59
2021/09/24 17:19:30;;;;;;;46.92;6.43;;;;;;;;;;5091657;28;20074;-48
2021/09/24 17:21:57;;;;;;;44.42;6.18;;;;;;;;;;5090277;28;20375;-61
2021/09/24 17:24:24;;;;;;;44.58;7.35;;;;;;;;;;5090614;28;20021;-60
2021/09/24 17:26:51;;;;;;;42.95;6.55;;;;;;;;;;5091270;28;20016;-42
2021/09/24 17:29:18;;;;;;;52.03;6.60;;;;;;;;;;5091323;28;20028;-46
2021/09/24 17:31:45;;;;;;;40.83;6.43;;;;;;;;;;5072750;28;20427;-47
2021/09/24 17:34:12;;;;;;;38.67;5.93;;;;;;;;;;5084825;28;20028;-42
2021/09/24 17:36:39;;;;;;;44.75;6.32;;;;;;;;;;5091745;28;20413;-43